Pellston Regional Airport of Emmet County Airport
KPLN : now visible

Airfield :











YOU CAN JOIN US ON...

 
LOGIN :

Register | Disclaimer

   EN    FR    IT 

 









Legend :    VFR   Marginal VFR   IFR   Intensive IFR   Very Intensive IFR
Visi :
Ceiling :
>= 8 km
>= 3000ft
5 to 8 km
1000 to 3000 ft
1500m to 5 km
500 to 1000 ft
800 to 1500m
200 to 500 ft
< 800m
< 200 ft
Symbols :   Thunderstorms  Fog  Heavy snow  Heavy precipitations  Wind > 20 kt






- Airport Elevation : 721 ft
- IATA code : PLN


KPLN - Pellston Regional of Emmet County

CURRENT METAR :
  • 291754Z AUTO 31008KT 10SM SCT026 20/13 A2986 RMK AO2 SLP110 T02000133 10206 20128 55001

EXPIRED METARs :
  • 291654Z AUTO 10SM CLR 21/13 A2985 RMK AO2 SLP108 T02060128
  • 291554Z AUTO 32006KT 10SM CLR 19/12 A2986 RMK AO2 SLP109 T01940117
  • 291454Z AUTO 31007KT 10SM CLR 18/14 A2986 RMK AO2 SLP111 T01780139 51006

TAF KPLN
Valid from the 29 at 18:00 until the 30 at 18:00 UTC


291721Z 2918/3018 29008KT P6SM SCT040
FM292300 29011G19KT P6SM SCT080
FM300300 29011G19KT P6SM BKN040
FM300700 30011G20KT P6SM SCT035
KZMP FIR / North America



MET'MAP, your aeronautical weather chart ! - Copyright ORBIFLY December 2007 - Disclaimer

ORBIFLY MET'MAP TEAM :

Programming & Development : Alexandra Zaïnal
Concept & original design : Baudouin d'Aumeries
Assistance for programming : Marc-Olivier Méhu
Technical & hardware support : Manuel Goepfert

Contact : metmap@orbifly.com




SOURCES & CREDITS :

   NOAA       Earth
Advisory